Time;durP1;ratioP1;P1;durP2;ratioP2;P2;SDS_P1;SDS_P2;PMS_P1;PMS_P2;Temp;Humidity;BMP_temperature;BMP_pressure;BME280_temperature;BME280_humidity;BME280_pressure;Samples;Min_cycle;Max_cycle;Signal;HPM_P1;HPM_P2
2023/06/25 00:01:56;;;;;;;4.03;2.53;;;19.00;99.90;;;;;;5054096;28;20457;-71
2023/06/25 00:04:22;;;;;;;4.33;2.70;;;18.90;99.90;;;;;;5054509;28;20205;-72
2023/06/25 00:06:48;;;;;;;2.80;2.40;;;18.90;99.90;;;;;;5053960;28;20191;-71
2023/06/25 00:09:13;;;;;;;3.23;2.57;;;18.80;99.90;;;;;;5054487;28;20212;-72
2023/06/25 00:11:39;;;;;;;2.57;2.00;;;18.80;99.90;;;;;;5054546;28;20539;-71
2023/06/25 00:14:05;;;;;;;3.33;2.77;;;18.80;99.90;;;;;;5054384;28;20171;-72
2023/06/25 00:16:33;;;;;;;3.30;2.57;;;18.70;99.90;;;;;;5053998;28;20195;-71
2023/06/25 00:18:59;;;;;;;5.10;2.83;;;18.70;99.90;;;;;;5054314;28;20450;-72
2023/06/25 00:21:25;;;;;;;3.20;2.40;;;18.70;99.90;;;;;;5054316;28;20445;-71
2023/06/25 00:23:50;;;;;;;3.00;2.23;;;18.70;99.90;;;;;;5054209;28;20432;-71
2023/06/25 00:26:16;;;;;;;3.80;2.50;;;18.60;99.90;;;;;;5053932;28;20525;-72
2023/06/25 00:28:41;;;;;;;3.90;3.33;;;18.60;99.90;;;;;;5054100;28;20167;-72
2023/06/25 00:31:07;;;;;;;5.50;3.00;;;18.60;99.90;;;;;;5054165;28;20250;-72
2023/06/25 00:33:32;;;;;;;2.70;2.50;;;18.50;99.90;;;;;;5054107;28;20174;-72
2023/06/25 00:35:58;;;;;;;3.53;3.00;;;18.50;99.90;;;;;;5053286;28;20574;-72
2023/06/25 00:38:24;;;;;;;4.10;3.13;;;18.40;99.90;;;;;;5053838;28;20167;-72
2023/06/25 00:40:50;;;;;;;5.20;3.50;;;18.40;99.90;;;;;;5053804;28;20740;-71
2023/06/25 00:43:16;;;;;;;3.80;3.07;;;18.40;99.90;;;;;;5053912;28;20400;-71
2023/06/25 00:45:44;;;;;;;4.10;2.50;;;18.40;99.90;;;;;;5053389;28;20406;-71
2023/06/25 00:48:10;;;;;;;5.10;2.70;;;18.30;99.90;;;;;;5053845;28;20170;-71
2023/06/25 00:50:36;;;;;;;2.97;2.70;;;18.30;99.90;;;;;;5053874;28;20405;-71
2023/06/25 00:53:02;;;;;;;2.90;2.23;;;18.30;99.90;;;;;;5053822;28;20458;-71
2023/06/25 00:55:28;;;;;;;4.73;3.10;;;18.20;99.90;;;;;;5053462;28;20187;-72
2023/06/25 00:57:55;;;;;;;3.73;2.90;;;18.20;99.90;;;;;;5053510;28;20777;-72
2023/06/25 01:00:25;;;;;;;4.47;2.90;;;18.20;99.90;;;;;;5053591;28;20445;-72
2023/06/25 01:03:05;;;;;;;2.50;2.30;;;18.10;99.90;;;;;;5053686;28;20408;-72
2023/06/25 01:05:39;;;;;;;3.70;2.50;;;18.10;99.90;;;;;;5053170;28;20916;-72
2023/06/25 01:08:11;;;;;;;6.60;2.50;;;18.10;99.90;;;;;;5053388;28;20429;-72
2023/06/25 01:10:40;;;;;;;4.13;2.80;;;18.00;99.90;;;;;;5053475;28;20897;-72
2023/06/25 01:13:06;;;;;;;3.70;2.37;;;18.00;99.90;;;;;;5052874;28;20492;-72
2023/06/25 01:15:31;;;;;;;3.07;2.30;;;18.00;99.90;;;;;;5052907;28;20838;-72
2023/06/25 01:17:58;;;;;;;2.93;2.60;;;17.90;99.90;;;;;;5053330;28;20170;-72
2023/06/25 01:20:26;;;;;;;3.97;2.70;;;17.90;99.90;;;;;;5053199;28;20236;-72
2023/06/25 01:22:55;;;;;;;2.87;2.40;;;17.80;99.90;;;;;;5053173;28;20409;-72
2023/06/25 01:25:21;;;;;;;3.60;2.17;;;17.80;99.90;;;;;;5052907;28;20402;-72
2023/06/25 01:27:48;;;;;;;3.70;2.50;;;17.80;99.90;;;;;;5052535;28;20520;-72
2023/06/25 01:30:15;;;;;;;4.70;3.40;;;17.70;99.90;;;;;;5053121;28;20167;-72
2023/06/25 01:32:41;;;;;;;4.30;3.10;;;17.70;99.90;;;;;;5052919;28;20416;-72
2023/06/25 01:35:07;;;;;;;4.40;3.20;;;17.70;99.90;;;;;;5052733;28;20413;-72
2023/06/25 01:37:33;;;;;;;5.03;3.87;;;17.60;99.90;;;;;;5052750;28;20432;-72
2023/06/25 01:39:59;;;;;;;5.17;3.40;;;17.60;99.90;;;;;;5052837;28;20417;-72
2023/06/25 01:42:24;;;;;;;8.13;2.70;;;17.60;99.90;;;;;;5052728;28;20217;-72
2023/06/25 01:44:50;;;;;;;3.83;3.50;;;17.50;99.90;;;;;;5052857;28;20167;-72
2023/06/25 01:47:16;;;;;;;4.43;3.03;;;17.50;99.90;;;;;;5052435;28;20651;-72
2023/06/25 01:49:41;;;;;;;5.33;3.47;;;17.50;99.90;;;;;;5052709;28;20178;-75
2023/06/25 01:52:07;;;;;;;4.43;2.80;;;17.40;99.90;;;;;;5052645;28;20235;-72
2023/06/25 01:54:33;;;;;;;6.07;2.77;;;17.40;99.90;;;;;;5052890;28;20328;-72
2023/06/25 01:57:00;;;;;;;4.43;2.63;;;17.40;99.90;;;;;;5052129;28;20194;-72
2023/06/25 01:59:27;;;;;;;3.60;2.67;;;17.30;99.90;;;;;;5052486;28;20458;-73
2023/06/25 02:01:52;;;;;;;3.30;2.80;;;17.30;99.90;;;;;;5052377;28;20526;-72
2023/06/25 02:04:19;;;;;;;3.27;2.60;;;17.30;99.90;;;;;;5052392;28;20910;-72
2023/06/25 02:06:44;;;;;;;5.50;3.60;;;17.20;99.90;;;;;;5051834;28;20244;-72
2023/06/25 02:09:10;;;;;;;3.73;3.23;;;17.20;99.90;;;;;;5052379;28;20402;-72
2023/06/25 02:11:36;;;;;;;4.13;3.73;;;17.20;99.90;;;;;;5052081;28;20753;-71
2023/06/25 02:14:03;;;;;;;7.10;2.97;;;17.20;99.90;;;;;;5052300;28;20546;-72
2023/06/25 02:16:28;;;;;;;3.30;2.60;;;17.20;99.90;;;;;;5051834;28;20197;-72
2023/06/25 02:18:54;;;;;;;4.57;2.87;;;17.20;99.90;;;;;;5052160;28;20413;-72
2023/06/25 02:21:19;;;;;;;3.70;2.60;;;17.20;99.90;;;;;;5052171;28;20707;-73
2023/06/25 02:23:45;;;;;;;3.80;2.57;;;17.20;99.90;;;;;;5051732;28;20170;-72
2023/06/25 02:26:11;;;;;;;2.50;2.30;;;17.20;99.90;;;;;;5049905;28;20194;-73
2023/06/25 02:28:36;;;;;;;3.80;2.70;;;17.20;99.90;;;;;;5052089;28;20206;-72
2023/06/25 02:31:02;;;;;;;3.50;2.80;;;17.10;99.90;;;;;;5051976;28;20586;-73
2023/06/25 02:33:27;;;;;;;2.70;2.50;;;17.10;99.90;;;;;;5051821;28;20764;-73
2023/06/25 02:35:53;;;;;;;5.17;3.07;;;17.20;99.90;;;;;;5051623;28;20289;-73
2023/06/25 02:38:18;;;;;;;3.77;2.57;;;17.20;99.90;;;;;;5052025;28;20631;-72
2023/06/25 02:40:44;;;;;;;3.07;2.53;;;17.10;99.90;;;;;;5051792;28;20679;-72
2023/06/25 02:43:09;;;;;;;3.23;2.73;;;17.10;99.90;;;;;;5050976;28;20167;-72
2023/06/25 02:45:35;;;;;;;4.83;2.90;;;17.10;99.90;;;;;;5051552;28;20167;-72
2023/06/25 02:48:00;;;;;;;3.00;2.17;;;17.10;99.90;;;;;;5051860;28;20200;-72
2023/06/25 02:50:26;;;;;;;4.23;2.80;;;17.10;99.90;;;;;;5051942;28;20773;-72
2023/06/25 02:52:51;;;;;;;5.63;3.03;;;17.00;99.90;;;;;;5051801;28;20181;-72
2023/06/25 02:55:17;;;;;;;5.93;2.77;;;17.00;99.90;;;;;;5051484;28;20182;-72
2023/06/25 02:57:42;;;;;;;9.80;3.03;;;17.00;99.90;;;;;;5051738;28;20249;-72
2023/06/25 03:00:08;;;;;;;3.13;2.37;;;17.00;99.90;;;;;;5051690;28;20178;-72
2023/06/25 03:02:34;;;;;;;3.27;2.97;;;17.00;99.90;;;;;;5051723;28;20167;-72
2023/06/25 03:04:59;;;;;;;16.73;3.60;;;17.00;99.90;;;;;;5051410;28;20882;-70
2023/06/25 03:07:25;;;;;;;2.70;2.27;;;16.90;99.90;;;;;;5051485;28;20210;-72
2023/06/25 03:09:50;;;;;;;4.77;2.70;;;16.90;99.90;;;;;;5051637;28;20194;-72
2023/06/25 03:12:16;;;;;;;3.80;2.77;;;16.90;99.90;;;;;;5051659;28;20163;-72
2023/06/25 03:14:41;;;;;;;5.73;3.13;;;16.80;99.90;;;;;;5051568;28;20167;-72
2023/06/25 03:17:07;;;;;;;7.33;3.40;;;16.70;99.90;;;;;;5051120;28;20183;-72
2023/06/25 03:19:33;;;;;;;3.50;3.00;;;16.80;99.90;;;;;;5051395;28;20528;-72
2023/06/25 03:21:58;;;;;;;3.47;2.60;;;16.70;99.90;;;;;;5051333;28;20205;-72
2023/06/25 03:24:24;;;;;;;2.97;2.73;;;16.70;99.90;;;;;;5051590;28;20175;-71
2023/06/25 03:26:50;;;;;;;3.73;2.57;;;16.70;99.90;;;;;;5051279;28;20663;-72
2023/06/25 03:29:15;;;;;;;3.23;2.77;;;16.70;99.90;;;;;;5051597;28;20159;-72
2023/06/25 03:31:41;;;;;;;4.37;3.13;;;16.70;99.90;;;;;;5051443;28;20175;-72
2023/06/25 03:34:06;;;;;;;3.03;2.30;;;16.60;99.90;;;;;;5051465;28;20178;-70
2023/06/25 03:36:32;;;;;;;2.70;2.40;;;16.70;99.90;;;;;;5052931;28;20187;-70
2023/06/25 03:38:58;;;;;;;9.13;2.80;;;16.80;99.90;;;;;;5055326;28;20162;-69
2023/06/25 03:41:24;;;;;;;6.23;2.70;;;16.90;99.90;;;;;;5055063;28;20199;-70
2023/06/25 03:43:50;;;;;;;2.57;2.37;;;16.90;99.90;;;;;;5055100;28;20258;-71
2023/06/25 03:46:16;;;;;;;4.17;2.63;;;17.00;99.90;;;;;;5054688;28;20513;-72
2023/06/25 03:48:42;;;;;;;3.07;2.07;;;17.10;99.90;;;;;;5055049;28;20171;-72
2023/06/25 03:51:08;;;;;;;5.00;2.67;;;17.10;99.90;;;;;;5054914;28;20225;-72
2023/06/25 03:53:34;;;;;;;5.60;3.00;;;17.10;99.90;;;;;;5054880;28;20917;-72
2023/06/25 03:55:59;;;;;;;2.90;2.40;;;17.10;99.90;;;;;;5054540;28;20475;-73
2023/06/25 03:58:25;;;;;;;3.73;2.10;;;17.10;99.90;;;;;;5054839;28;20531;-72
2023/06/25 04:00:50;;;;;;;3.33;2.57;;;17.10;99.90;;;;;;5054669;28;20186;-72
2023/06/25 04:03:16;;;;;;;2.37;2.00;;;17.10;99.90;;;;;;5054988;28;20745;-71
2023/06/25 04:05:41;;;;;;;2.00;1.80;;;17.10;99.90;;;;;;5054336;28;20170;-72
2023/06/25 04:08:07;;;;;;;2.53;2.33;;;17.20;99.90;;;;;;5054584;28;20671;-71
2023/06/25 04:10:32;;;;;;;2.33;2.00;;;17.20;99.90;;;;;;5054635;28;20670;-72
2023/06/25 04:12:58;;;;;;;5.03;2.77;;;17.20;99.90;;;;;;5054403;28;20179;-72
2023/06/25 04:15:23;;;;;;;3.80;2.47;;;17.30;99.90;;;;;;5054397;28;20178;-72
2023/06/25 04:17:49;;;;;;;3.30;2.07;;;17.30;99.90;;;;;;5054038;28;20202;-71
2023/06/25 04:20:15;;;;;;;4.07;2.30;;;17.40;99.90;;;;;;5054363;28;20655;-72
2023/06/25 04:22:40;;;;;;;2.03;1.83;;;17.40;99.90;;;;;;5054227;28;20538;-72
2023/06/25 04:25:06;;;;;;;5.87;3.50;;;17.40;99.90;;;;;;5054038;28;20167;-71
2023/06/25 04:27:32;;;;;;;3.90;2.67;;;17.50;99.90;;;;;;5054029;28;20190;-72
2023/06/25 04:29:57;;;;;;;4.60;2.73;;;17.50;99.90;;;;;;5054238;28;20492;-72
2023/06/25 04:32:23;;;;;;;3.03;2.73;;;17.50;99.90;;;;;;5054102;28;20171;-72
2023/06/25 04:34:49;;;;;;;5.13;3.17;;;17.50;99.90;;;;;;5054123;28;20163;-72
2023/06/25 04:37:14;;;;;;;6.47;3.60;;;17.50;99.90;;;;;;5053809;28;20479;-73
2023/06/25 04:39:40;;;;;;;11.17;2.80;;;17.60;99.90;;;;;;5054040;28;20246;-72
2023/06/25 04:42:06;;;;;;;6.13;4.17;;;17.70;99.90;;;;;;5053926;28;20190;-72
2023/06/25 04:44:32;;;;;;;6.27;4.10;;;17.70;99.90;;;;;;5053955;28;20167;-71
2023/06/25 04:46:57;;;;;;;6.17;3.40;;;17.80;99.90;;;;;;5053123;28;20922;-72
2023/06/25 04:49:23;;;;;;;3.67;2.93;;;17.90;99.90;;;;;;5053356;28;20171;-72
2023/06/25 04:51:48;;;;;;;3.90;3.07;;;18.00;99.90;;;;;;5053833;28;20707;-72
2023/06/25 04:54:14;;;;;;;7.40;3.53;;;18.10;99.90;;;;;;5053768;28;20171;-72
2023/06/25 04:56:40;;;;;;;6.63;3.00;;;18.20;99.90;;;;;;5053428;28;20702;-72
2023/06/25 04:59:05;;;;;;;5.20;3.30;;;18.30;99.90;;;;;;5053660;28;20170;-72
2023/06/25 05:01:31;;;;;;;5.40;3.03;;;18.40;99.90;;;;;;5053560;28;20249;-73
2023/06/25 05:03:56;;;;;;;4.30;2.97;;;18.40;99.90;;;;;;5053584;28;20164;-73
2023/06/25 05:06:22;;;;;;;6.90;3.10;;;18.60;99.90;;;;;;5053246;28;20179;-72
2023/06/25 05:08:47;;;;;;;5.13;3.70;;;18.60;99.90;;;;;;5053454;28;20194;-72
2023/06/25 05:11:13;;;;;;;4.67;3.60;;;18.70;99.90;;;;;;5052216;28;20197;-73
2023/06/25 05:13:38;;;;;;;4.67;3.47;;;18.70;99.90;;;;;;5053354;28;20236;-72
2023/06/25 05:16:04;;;;;;;6.70;3.77;;;18.80;99.90;;;;;;5053056;28;20772;-72
2023/06/25 05:18:30;;;;;;;3.23;2.93;;;18.80;99.90;;;;;;5053376;28;20229;-73
2023/06/25 05:20:56;;;;;;;4.17;3.43;;;19.00;99.90;;;;;;5053157;28;20229;-72
2023/06/25 05:23:21;;;;;;;5.20;4.00;;;19.10;99.90;;;;;;5053268;28;20189;-72
2023/06/25 05:25:47;;;;;;;4.80;4.30;;;19.20;99.90;;;;;;5052810;28;20559;-73
2023/06/25 05:28:12;;;;;;;5.57;4.10;;;19.30;99.90;;;;;;5053158;28;20201;-73
2023/06/25 05:30:38;;;;;;;7.10;4.53;;;19.40;99.90;;;;;;5053034;28;20216;-73
2023/06/25 05:33:03;;;;;;;10.13;4.90;;;19.50;99.90;;;;;;5052990;28;20165;-73
2023/06/25 05:35:29;;;;;;;7.00;5.13;;;19.70;99.90;;;;;;5052526;28;20658;-73
2023/06/25 05:37:56;;;;;;;6.60;5.20;;;19.80;99.90;;;;;;5052914;28;20270;-73
2023/06/25 05:40:26;;;;;;;6.97;5.33;;;19.90;99.90;;;;;;5052721;28;20475;-73
2023/06/25 05:42:52;;;;;;;6.57;4.73;;;19.90;99.90;;;;;;5052887;28;20408;-73
2023/06/25 05:45:17;;;;;;;7.20;6.50;;;20.10;99.90;;;;;;5052428;28;20767;-73
2023/06/25 05:47:43;;;;;;;7.97;5.57;;;20.20;99.90;;;;;;5052666;28;20184;-74
2023/06/25 05:50:09;;;;;;;8.33;6.77;;;20.20;99.90;;;;;;5052573;28;20171;-73
2023/06/25 05:52:35;;;;;;;8.10;5.70;;;20.30;99.90;;;;;;5052688;28;20940;-74
2023/06/25 05:55:00;;;;;;;5.33;4.70;;;20.50;99.90;;;;;;5052313;28;20412;-74
2023/06/25 05:57:26;;;;;;;5.53;5.03;;;20.60;99.90;;;;;;5052546;28;20183;-74
2023/06/25 05:59:52;;;;;;;10.97;6.83;;;20.80;99.90;;;;;;5052317;28;20167;-74
2023/06/25 06:02:17;;;;;;;6.53;5.90;;;20.90;99.90;;;;;;5052416;28;20629;-74
2023/06/25 06:04:43;;;;;;;8.77;5.57;;;21.10;99.90;;;;;;5052415;28;20563;-73
2023/06/25 06:07:08;;;;;;;7.37;4.87;;;21.60;99.90;;;;;;5051949;28;20674;-74
2023/06/25 06:09:35;;;;;;;6.33;5.40;;;22.10;99.90;;;;;;5052368;28;20163;-75
2023/06/25 06:12:00;;;;;;;6.17;5.30;;;22.80;99.90;;;;;;5050950;28;20167;-74
2023/06/25 06:14:26;;;;;;;6.17;4.60;;;23.50;99.90;;;;;;5052363;28;20743;-76
2023/06/25 06:16:51;;;;;;;4.50;3.97;;;24.40;99.90;;;;;;5051892;28;20190;-73
2023/06/25 06:19:17;;;;;;;9.87;6.70;;;25.20;99.90;;;;;;5052196;28;20228;-74
2023/06/25 06:21:42;;;;;;;6.53;5.03;;;26.00;99.90;;;;;;5052048;28;20584;-75
2023/06/25 06:24:08;;;;;;;5.37;4.83;;;26.80;99.90;;;;;;5052010;28;20201;-75
2023/06/25 06:26:37;;;;;;;6.23;4.60;;;27.60;99.90;;;;;;5051636;28;20182;-73
2023/06/25 06:29:03;;;;;;;6.07;4.70;;;28.00;99.90;;;;;;5051933;28;20245;-73
2023/06/25 06:31:30;;;;;;;4.77;4.23;;;28.70;99.90;;;;;;5051777;28;20837;-73
2023/06/25 06:33:56;;;;;;;5.00;4.60;;;29.40;99.40;;;;;;5052032;28;21091;-72
2023/06/25 06:36:21;;;;;;;6.20;4.77;;;30.00;96.00;;;;;;5051647;28;20427;-73
2023/06/25 06:38:47;;;;;;;4.57;4.10;;;30.70;92.90;;;;;;5052008;28;20659;-73
2023/06/25 06:41:13;;;;;;;8.60;4.97;;;31.10;87.10;;;;;;5051811;28;20216;-73
2023/06/25 06:43:38;;;;;;;5.07;4.07;;;31.70;81.90;;;;;;5051919;28;20266;-74
2023/06/25 06:46:04;;;;;;;5.30;4.50;;;32.20;77.00;;;;;;5051484;28;20539;-73
2023/06/25 06:48:30;;;;;;;4.97;4.57;;;32.10;68.80;;;;;;5051766;28;20170;-76
2023/06/25 06:50:55;;;;;;;6.67;5.83;;;32.80;65.60;;;;;;5051929;28;20170;-76
2023/06/25 06:53:21;;;;;;;4.83;4.33;;;33.00;60.50;;;;;;5051784;28;20220;-76
2023/06/25 06:55:47;;;;;;;6.37;5.77;;;33.40;59.80;;;;;;5051566;28;20417;-77
2023/06/25 06:58:12;;;;;;;5.80;5.30;;;33.80;57.90;;;;;;5051528;28;20660;-74
2023/06/25 07:00:38;;;;;;;6.07;5.47;;;34.10;56.40;;;;;;5051697;28;20213;-75
2023/06/25 07:03:03;;;;;;;4.90;4.40;;;33.90;54.70;;;;;;5051827;28;20167;-75
2023/06/25 07:05:29;;;;;;;5.37;3.80;;;33.90;55.70;;;;;;5051467;28;20181;-76
2023/06/25 07:07:54;;;;;;;6.30;4.77;;;34.80;56.30;;;;;;5051410;28;20203;-75
2023/06/25 07:10:20;;;;;;;4.97;4.57;;;35.30;53.40;;;;;;5051411;28;20175;-74
2023/06/25 07:12:45;;;;;;;4.57;4.17;;;35.90;51.80;;;;;;5055646;28;20221;-74
2023/06/25 07:15:11;;;;;;;5.77;5.27;;;36.20;49.80;;;;;;5055495;28;20179;-75
2023/06/25 07:17:36;;;;;;;4.90;4.30;;;36.20;49.00;;;;;;5055466;28;20195;-74
2023/06/25 07:20:02;;;;;;;5.93;5.43;;;36.70;48.60;;;;;;5055466;28;20175;-75
2023/06/25 07:22:27;;;;;;;5.23;4.73;;;36.70;46.80;;;;;;5055436;28;20171;-76
2023/06/25 07:24:53;;;;;;;4.97;4.57;;;37.10;46.20;;;;;;5055374;28;20167;-74
2023/06/25 07:27:18;;;;;;;5.40;5.00;;;36.90;45.60;;;;;;5055222;28;20285;-75
2023/06/25 07:29:44;;;;;;;6.60;5.03;;;37.50;44.60;;;;;;5055442;28;20171;-75
2023/06/25 07:32:09;;;;;;;6.13;5.63;;;37.90;45.00;;;;;;5055325;28;20178;-75
2023/06/25 07:34:36;;;;;;;5.20;4.70;;;37.40;43.50;;;;;;5055284;28;20182;-75
2023/06/25 07:37:01;;;;;;;6.73;4.80;;;37.80;43.70;;;;;;5054958;28;20186;-74
2023/06/25 07:39:33;;;;;;;5.43;4.93;;;38.20;42.70;;;;;;5055119;28;20910;-75
2023/06/25 07:41:59;;;;;;;6.00;4.90;;;38.20;42.50;;;;;;5055063;28;20198;-77
2023/06/25 07:44:25;;;;;;;6.30;5.70;;;38.80;42.10;;;;;;5053646;28;20419;-76
2023/06/25 07:46:50;;;;;;;5.10;4.67;;;38.60;41.10;;;;;;5054722;28;20928;-76
2023/06/25 07:49:16;;;;;;;5.40;5.00;;;39.40;41.50;;;;;;5055107;28;20406;-73
2023/06/25 07:51:45;;;;;;;7.70;6.97;;;40.00;40.40;;;;;;5054996;28;20254;-75
2023/06/25 07:54:11;;;;;;;6.40;5.80;;;40.10;39.40;;;;;;5054907;28;20588;-76
2023/06/25 07:56:36;;;;;;;5.70;5.20;;;39.50;38.30;;;;;;5054538;28;20436;-75
2023/06/25 07:59:02;;;;;;;5.23;4.83;;;39.20;37.80;;;;;;5054730;28;20398;-75
2023/06/25 08:01:29;;;;;;;5.73;5.33;;;39.10;38.00;;;;;;5054773;28;20207;-75
2023/06/25 08:03:55;;;;;;;5.67;5.17;;;39.80;37.50;;;;;;5054734;28;20250;-73
2023/06/25 08:06:21;;;;;;;4.87;4.10;;;39.70;37.00;;;;;;5054352;28;20490;-75
2023/06/25 08:08:47;;;;;;;6.03;5.53;;;40.20;37.50;;;;;;5054364;28;20431;-74
2023/06/25 08:11:12;;;;;;;4.57;4.23;;;40.10;36.80;;;;;;5054646;28;20163;-75
2023/06/25 08:13:38;;;;;;;5.27;4.77;;;40.70;38.40;;;;;;5053106;28;20198;-75
2023/06/25 08:16:04;;;;;;;5.53;5.03;;;41.70;37.30;;;;;;5054255;28;20266;-75
2023/06/25 08:18:29;;;;;;;7.00;4.87;;;42.40;35.60;;;;;;5054406;28;20639;-77
2023/06/25 08:20:55;;;;;;;5.30;4.90;;;43.00;34.90;;;;;;5054711;28;20193;-75
2023/06/25 08:23:20;;;;;;;5.10;4.70;;;43.50;33.40;;;;;;5053419;28;20203;-76
2023/06/25 08:25:46;;;;;;;5.03;4.63;;;44.00;32.70;;;;;;5053974;28;20711;-75
2023/06/25 08:28:12;;;;;;;5.70;5.30;;;44.00;31.80;;;;;;5053118;28;20174;-76
2023/06/25 08:30:37;;;;;;;5.07;4.60;;;44.30;30.80;;;;;;5054267;28;20177;-75
2023/06/25 08:33:03;;;;;;;5.43;4.93;;;44.50;31.00;;;;;;5053855;28;20175;-76
2023/06/25 08:35:28;;;;;;;5.57;5.10;;;45.20;31.30;;;;;;5053957;28;20171;-76
2023/06/25 08:37:54;;;;;;;4.80;4.40;;;44.40;29.60;;;;;;5054320;28;20559;-76
2023/06/25 08:40:21;;;;;;;5.40;4.83;;;45.00;30.40;;;;;;5053929;28;20194;-75
2023/06/25 08:42:47;;;;;;;4.80;4.50;;;45.60;29.60;;;;;;5054111;28;20690;-75
2023/06/25 08:45:12;;;;;;;4.97;4.57;;;46.30;30.00;;;;;;5053707;28;20403;-75
2023/06/25 08:47:39;;;;;;;6.03;5.53;;;47.30;29.60;;;;;;5053818;28;20266;-75
2023/06/25 08:50:07;;;;;;;5.13;4.83;;;47.80;28.20;;;;;;5053918;28;20167;-75
2023/06/25 08:52:33;;;;;;;5.37;5.00;;;47.90;27.50;;;;;;5053873;28;20413;-73
2023/06/25 08:54:59;;;;;;;6.37;5.97;;;48.20;26.90;;;;;;5053613;28;20391;-76
2023/06/25 08:57:25;;;;;;;5.00;4.60;;;48.60;27.00;;;;;;5053775;28;20266;-76
2023/06/25 08:59:50;;;;;;;6.33;5.83;;;48.40;25.90;;;;;;5053807;28;20411;-76
2023/06/25 09:02:16;;;;;;;5.03;4.63;;;48.20;26.40;;;;;;5053653;28;20200;-76
2023/06/25 09:04:43;;;;;;;5.30;4.90;;;48.90;26.80;;;;;;5053601;28;20250;-75
2023/06/25 09:07:11;;;;;;;4.50;4.20;;;49.00;25.20;;;;;;5053153;28;20252;-75
2023/06/25 09:09:37;;;;;;;5.10;4.70;;;49.40;25.50;;;;;;5053461;28;20405;-75
2023/06/25 09:12:03;;;;;;;5.30;4.80;;;49.90;25.30;;;;;;5053443;28;20445;-75
2023/06/25 09:14:35;;;;;;;5.17;4.77;;;49.60;25.70;;;;;;5053371;28;20241;-75
2023/06/25 09:17:02;;;;;;;5.20;4.90;;;50.30;23.90;;;;;;5053039;28;20409;-75
2023/06/25 09:19:28;;;;;;;5.17;4.80;;;50.00;22.90;;;;;;5053294;28;20416;-75
2023/06/25 09:21:53;;;;;;;6.87;5.00;;;50.40;23.20;;;;;;5053367;28;20405;-77
2023/06/25 09:24:21;;;;;;;5.30;4.90;;;50.80;24.20;;;;;;5053276;28;20167;-75
2023/06/25 09:26:53;;;;;;;5.93;5.40;;;50.70;23.90;;;;;;5052831;28;20186;-77
2023/06/25 09:29:21;;;;;;;5.83;5.33;;;51.50;24.30;;;;;;5053159;28;20410;-76
2023/06/25 09:31:48;;;;;;;4.77;4.47;;;50.90;21.60;;;;;;5052921;28;20803;-75
2023/06/25 09:34:15;;;;;;;5.60;5.10;;;51.50;23.00;;;;;;5052610;28;20512;-75
2023/06/25 09:36:41;;;;;;;5.30;5.00;;;52.20;23.10;;;;;;5052698;28;20421;-76
2023/06/25 09:39:08;;;;;;;6.10;5.60;;;53.20;23.30;;;;;;5053119;28;20408;-75
2023/06/25 09:41:36;;;;;;;6.10;5.70;;;53.20;21.90;;;;;;5051696;28;20416;-76
2023/06/25 09:44:04;;;;;;;5.50;5.10;;;53.90;21.60;;;;;;5052868;28;20401;-75
2023/06/25 09:46:35;;;;;;;5.63;5.33;;;54.40;21.70;;;;;;5052372;28;20420;-75
2023/06/25 09:49:01;;;;;;;5.70;5.30;;;55.10;21.70;;;;;;5057975;28;20928;-74
2023/06/25 09:51:55;;;;;;;4.77;4.47;;;54.30;19.40;;;;;;5072594;28;20466;-75
2023/06/25 09:54:22;;;;;;;6.30;5.80;;;54.40;19.60;;;;;;5063839;28;20412;-73
2023/06/25 09:56:50;;;;;;;6.07;5.67;;;54.10;20.30;;;;;;5071975;28;20420;-77
2023/06/25 09:59:16;;;;;;;5.40;5.10;;;53.50;20.20;;;;;;5072223;28;20409;-76
2023/06/25 10:01:42;;;;;;;6.03;5.63;;;54.10;21.00;;;;;;5072454;28;20415;-76
2023/06/25 10:04:07;;;;;;;5.00;4.70;;;54.80;20.90;;;;;;5072145;28;20912;-74
2023/06/25 10:06:35;;;;;;;5.07;4.77;;;55.00;21.00;;;;;;5072007;28;20190;-74
2023/06/25 10:09:02;;;;;;;6.23;5.80;;;54.80;20.90;;;;;;5072152;28;20174;-73
2023/06/25 10:11:28;;;;;;;5.00;4.70;;;55.40;20.50;;;;;;5072302;28;20452;-74
2023/06/25 10:13:57;;;;;;;5.90;5.50;;;56.20;20.30;;;;;;5072011;28;20932;-74
2023/06/25 10:16:23;;;;;;;5.70;5.40;;;55.80;19.30;;;;;;5071985;28;20420;-74
2023/06/25 10:18:54;;;;;;;5.60;5.20;;;55.50;19.20;;;;;;5072060;28;20396;-74
2023/06/25 10:21:22;;;;;;;5.27;4.97;;;55.50;19.40;;;;;;5072301;28;20483;-73
2023/06/25 10:23:57;;;;;;;5.53;5.23;;;56.00;20.10;;;;;;5071884;28;20443;-74
2023/06/25 10:26:27;;;;;;;6.30;6.00;;;56.10;18.60;;;;;;5071809;28;20419;-75
2023/06/25 10:28:53;;;;;;;5.30;5.00;;;56.50;19.50;;;;;;5071902;28;20441;-74
2023/06/25 10:31:19;;;;;;;6.10;5.70;;;56.90;19.50;;;;;;5071844;28;20858;-74
2023/06/25 10:33:44;;;;;;;5.90;5.60;;;57.50;19.00;;;;;;5072051;28;20538;-75
2023/06/25 10:36:11;;;;;;;6.43;5.93;;;57.80;19.50;;;;;;5070433;28;20189;-74
2023/06/25 10:38:37;;;;;;;6.50;6.10;;;58.30;19.10;;;;;;5071962;28;20531;-74
2023/06/25 10:41:02;;;;;;;6.33;6.03;;;58.70;18.30;;;;;;5071983;28;20404;-74
2023/06/25 10:43:28;;;;;;;6.20;5.80;;;58.40;18.10;;;;;;5071811;28;20441;-73
2023/06/25 10:45:56;;;;;;;5.50;5.20;;;58.30;19.10;;;;;;5070780;28;20238;-73
2023/06/25 10:48:23;;;;;;;5.60;5.30;;;58.60;18.80;;;;;;5071751;28;20165;-74
2023/06/25 10:50:50;;;;;;;5.20;4.90;;;58.10;17.80;;;;;;5071789;28;20549;-73
2023/06/25 10:53:17;;;;;;;6.47;5.97;;;57.00;17.50;;;;;;5071978;28;20395;-74
2023/06/25 10:55:51;;;;;;;5.90;5.60;;;56.90;17.80;;;;;;5070217;28;20447;-75
2023/06/25 10:58:19;;;;;;;6.17;5.77;;;57.50;18.90;;;;;;5071859;28;20876;-74
2023/06/25 11:00:45;;;;;;;6.23;5.83;;;57.20;17.20;;;;;;5071718;28;20480;-73
2023/06/25 11:03:12;;;;;;;7.30;6.90;;;57.00;17.50;;;;;;5071655;28;20415;-74
2023/06/25 11:05:43;;;;;;;6.43;6.10;;;57.50;18.10;;;;;;5071091;28;20909;-74
2023/06/25 11:08:09;;;;;;;6.67;6.27;;;58.00;17.50;;;;;;5071642;28;20432;-74
2023/06/25 11:10:37;;;;;;;7.03;6.53;;;58.50;18.40;;;;;;5071548;28;20452;-74
2023/06/25 11:13:03;;;;;;;7.43;7.03;;;59.00;18.30;;;;;;5070595;28;20172;-74
2023/06/25 11:15:32;;;;;;;6.00;5.70;;;57.70;16.60;;;;;;5071328;28;20755;-74
2023/06/25 11:17:59;;;;;;;6.57;6.20;;;57.00;17.40;;;;;;5071698;28;20415;-73
2023/06/25 11:20:25;;;;;;;5.30;5.00;;;56.90;16.60;;;;;;5071533;28;20400;-73
2023/06/25 11:22:51;;;;;;;5.33;5.03;;;57.10;18.30;;;;;;5071659;28;20933;-74
2023/06/25 11:25:21;;;;;;;6.07;5.67;;;56.70;17.50;;;;;;5071424;28;20400;-74
2023/06/25 11:27:47;;;;;;;5.80;5.50;;;56.60;17.30;;;;;;5071338;28;20181;-74
2023/06/25 11:30:13;;;;;;;4.90;4.60;;;56.30;17.50;;;;;;5071502;28;20426;-73
2023/06/25 11:32:39;;;;;;;6.00;5.60;;;55.80;17.90;;;;;;5071476;28;20404;-73
2023/06/25 11:35:10;;;;;;;5.70;5.30;;;54.90;17.30;;;;;;5071113;28;20162;-73
2023/06/25 11:37:56;;;;;;;4.87;4.57;;;55.00;18.70;;;;;;5071370;28;20182;-74
2023/06/25 11:40:23;;;;;;;5.13;4.83;;;55.70;19.00;;;;;;5071449;28;20404;-73
2023/06/25 11:42:49;;;;;;;5.70;5.40;;;56.70;18.60;;;;;;5071036;28;20757;-73
2023/06/25 11:45:15;;;;;;;5.40;5.10;;;56.80;16.40;;;;;;5071337;28;20407;-73
2023/06/25 11:47:50;;;;;;;5.33;4.93;;;57.30;17.40;;;;;;5071177;28;20423;-73
2023/06/25 11:50:16;;;;;;;4.87;4.60;;;56.00;17.10;;;;;;5071626;28;20252;-73
2023/06/25 11:52:42;;;;;;;5.47;5.07;;;55.70;17.30;;;;;;5071600;28;20414;-74
2023/06/25 11:55:08;;;;;;;5.53;5.23;;;55.80;18.50;;;;;;5071356;28;20988;-73
2023/06/25 11:57:34;;;;;;;5.03;4.73;;;56.60;18.40;;;;;;5073362;28;20266;-73
2023/06/25 11:59:59;;;;;;;5.30;5.00;;;56.50;16.70;;;;;;5075119;28;20158;-73
2023/06/25 12:02:25;;;;;;;4.73;4.43;;;55.90;16.40;;;;;;5073929;28;20550;-73
2023/06/25 12:04:52;;;;;;;5.20;4.90;;;55.40;16.80;;;;;;5074843;28;20170;-72
2023/06/25 12:07:18;;;;;;;6.50;6.00;;;56.10;18.60;;;;;;5074354;28;20209;-73
2023/06/25 12:09:43;;;;;;;4.90;4.60;;;56.70;17.50;;;;;;5074709;28;20399;-74
2023/06/25 12:12:09;;;;;;;7.00;6.33;;;56.30;17.30;;;;;;5074539;28;20205;-73
2023/06/25 12:14:35;;;;;;;4.90;4.60;;;56.30;17.30;;;;;;5074554;28;20537;-74
2023/06/25 12:17:01;;;;;;;5.47;5.10;;;56.80;18.30;;;;;;5074298;28;20419;-73
2023/06/25 12:19:26;;;;;;;5.33;5.03;;;57.40;18.10;;;;;;5074482;28;20253;-74
2023/06/25 12:21:52;;;;;;;5.63;5.30;;;58.20;18.60;;;;;;5074525;28;20166;-73
2023/06/25 12:24:17;;;;;;;5.33;5.03;;;56.70;16.80;;;;;;5074095;28;20180;-74
2023/06/25 12:26:43;;;;;;;5.23;4.93;;;56.80;18.20;;;;;;5073984;28;20685;-73
2023/06/25 12:29:09;;;;;;;4.90;4.60;;;57.20;17.40;;;;;;5074244;28;20169;-73
2023/06/25 12:31:34;;;;;;;5.20;4.90;;;57.30;17.60;;;;;;5074231;28;20263;-73
2023/06/25 12:34:00;;;;;;;5.20;4.90;;;57.70;17.30;;;;;;5074204;28;20535;-73
2023/06/25 12:36:25;;;;;;;6.23;5.93;;;58.00;17.50;;;;;;5073881;28;20240;-72
2023/06/25 12:38:51;;;;;;;6.30;5.90;;;57.00;16.50;;;;;;5073884;28;20223;-73
2023/06/25 12:41:17;;;;;;;5.43;5.00;;;56.40;17.30;;;;;;5074061;28;20173;-73